createdAt,value
2019-03-09T00:00:51.167Z,11.37
2019-03-09T00:03:22.912Z,11.41
2019-03-09T00:05:54.643Z,11.11
2019-03-09T00:08:26.318Z,11.01
2019-03-09T00:10:58.129Z,11.04
2019-03-09T00:13:29.596Z,11.03
2019-03-09T00:16:01.251Z,11.08
2019-03-09T00:18:32.577Z,11.21
2019-03-09T00:21:03.828Z,11.37
2019-03-09T00:23:59.627Z,11.51
2019-03-09T00:26:44.140Z,11.64
2019-03-09T00:29:30.405Z,11.62
2019-03-09T00:32:05.242Z,11.73
2019-03-09T00:34:36.528Z,11.76
2019-03-09T00:37:07.629Z,11.73
2019-03-09T00:39:38.881Z,11.75
2019-03-09T00:42:10.504Z,11.69
2019-03-09T00:44:41.923Z,11.45
2019-03-09T00:47:13.706Z,11.17
2019-03-09T00:49:44.938Z,11.18
2019-03-09T00:52:16.642Z,11.13
2019-03-09T00:54:48.360Z,11.01
2019-03-09T00:57:19.711Z,10.98
2019-03-09T00:59:56.146Z,10.89
2019-03-09T01:02:27.658Z,10.81
2019-03-09T01:04:58.889Z,10.76
2019-03-09T01:07:30.347Z,10.67
2019-03-09T01:10:01.709Z,10.77
2019-03-09T01:12:34.582Z,10.65
2019-03-09T01:15:07.447Z,10.62
2019-03-09T01:17:39.791Z,10.71
2019-03-09T01:20:13.438Z,10.60
2019-03-09T01:22:44.903Z,10.73
2019-03-09T01:25:16.412Z,10.84
2019-03-09T01:27:47.989Z,10.68
2019-03-09T01:30:19.522Z,10.49
2019-03-09T01:32:51.229Z,10.28
2019-03-09T01:35:22.819Z,10.17
2019-03-09T01:37:54.420Z,10.26
2019-03-09T01:40:25.973Z,10.22
2019-03-09T01:42:57.360Z,10.12
2019-03-09T01:45:29.147Z,10.09
2019-03-09T01:48:01.095Z,10.16
2019-03-09T01:50:33.707Z,10.16
2019-03-09T01:53:05.303Z,10.18
2019-03-09T01:55:36.819Z,10.26
2019-03-09T01:58:08.351Z,10.41
2019-03-09T02:00:40.082Z,10.45
2019-03-09T02:03:11.546Z,10.55
2019-03-09T02:05:43.020Z,10.58
2019-03-09T02:08:14.359Z,10.69
2019-03-09T02:10:45.724Z,10.75
2019-03-09T02:13:17.533Z,10.73
2019-03-09T02:15:49.362Z,10.89
2019-03-09T02:18:21.024Z,10.88
2019-03-09T02:20:52.548Z,10.60
2019-03-09T02:23:24.148Z,10.42
2019-03-09T02:25:55.708Z,10.28
2019-03-09T02:28:27.152Z,10.35
2019-03-09T02:30:58.413Z,10.21
2019-03-09T02:33:30.070Z,10.23
2019-03-09T02:36:01.543Z,9.95
2019-03-09T02:38:38.539Z,9.89
2019-03-09T02:41:09.738Z,10.03
2019-03-09T02:43:41.359Z,10.06
2019-03-09T02:46:13.940Z,9.89
2019-03-09T02:48:45.351Z,9.78
2019-03-09T02:51:17.043Z,9.71
2019-03-09T02:53:48.567Z,9.74
2019-03-09T02:56:20.139Z,9.82
2019-03-09T02:58:51.693Z,9.83
2019-03-09T03:01:48.360Z,9.96
2019-03-09T03:04:19.702Z,9.95
2019-03-09T03:06:51.385Z,9.97
2019-03-09T03:09:22.924Z,10.09
2019-03-09T03:11:54.429Z,9.90
2019-03-09T03:14:25.964Z,9.72
2019-03-09T03:16:57.616Z,9.71
2019-03-09T03:19:29.158Z,9.68
2019-03-09T03:22:00.768Z,9.71
2019-03-09T03:24:32.158Z,9.83
2019-03-09T03:27:03.737Z,9.90
2019-03-09T03:29:35.086Z,9.85
2019-03-09T03:32:06.550Z,9.82
2019-03-09T03:34:38.122Z,9.85
2019-03-09T03:37:09.680Z,9.88
2019-03-09T03:39:41.232Z,9.76
2019-03-09T03:42:13.740Z,9.68
2019-03-09T03:44:45.506Z,9.81
2019-03-09T03:47:18.073Z,9.82
2019-03-09T03:49:50.666Z,9.84
2019-03-09T03:52:22.339Z,9.84
2019-03-09T03:54:53.941Z,9.90
2019-03-09T03:57:25.578Z,9.99
2019-03-09T03:59:57.152Z,10.08
2019-03-09T04:02:28.565Z,10.23
2019-03-09T04:05:01.026Z,10.18
2019-03-09T04:07:32.658Z,10.01
2019-03-09T04:10:04.536Z,10.01
2019-03-09T04:12:35.968Z,9.92
2019-03-09T04:15:07.875Z,9.97
2019-03-09T04:17:39.189Z,9.87
2019-03-09T04:20:11.537Z,9.86
2019-03-09T04:22:43.105Z,9.82
2019-03-09T04:25:14.714Z,9.80
2019-03-09T04:27:46.135Z,9.92
2019-03-09T04:30:17.363Z,10.00
2019-03-09T04:32:48.698Z,9.97
2019-03-09T04:35:20.161Z,9.97
2019-03-09T04:37:51.429Z,10.03
2019-03-09T04:40:22.666Z,10.04
2019-03-09T04:42:54.422Z,10.13
2019-03-09T04:45:26.063Z,10.18
2019-03-09T04:47:57.556Z,9.94
2019-03-09T04:50:28.843Z,9.73
2019-03-09T04:53:00.240Z,9.62
2019-03-09T04:55:31.523Z,9.61
2019-03-09T04:58:03.000Z,9.62
2019-03-09T05:00:34.315Z,9.47
2019-03-09T05:03:05.924Z,9.36
2019-03-09T05:05:37.441Z,9.41
2019-03-09T05:08:15.588Z,9.41
2019-03-09T05:10:58.641Z,9.46
2019-03-09T05:13:36.092Z,9.44
2019-03-09T05:16:07.552Z,9.45
2019-03-09T05:18:39.142Z,9.47
2019-03-09T05:21:10.656Z,9.64
2019-03-09T05:23:42.337Z,9.83
2019-03-09T05:26:13.980Z,10.04
2019-03-09T05:28:45.437Z,10.22
2019-03-09T05:31:17.008Z,10.37
2019-03-09T05:33:48.277Z,10.51
2019-03-09T05:36:19.816Z,10.63
2019-03-09T05:38:51.388Z,10.77
2019-03-09T05:41:27.935Z,10.92
2019-03-09T05:43:56.270Z,10.93
2019-03-09T05:46:28.906Z,11.14
2019-03-09T05:49:00.488Z,11.08
2019-03-09T05:51:32.112Z,11.04
2019-03-09T05:54:03.887Z,10.94
2019-03-09T05:56:35.448Z,10.97
2019-03-09T05:59:08.535Z,10.80
2019-03-09T06:01:39.796Z,10.70
2019-03-09T06:04:11.058Z,10.76
2019-03-09T06:06:42.489Z,10.74
2019-03-09T06:09:14.079Z,10.77
2019-03-09T06:11:45.584Z,10.74
2019-03-09T06:14:17.189Z,10.79
2019-03-09T06:16:48.922Z,10.83
2019-03-09T06:19:20.351Z,10.74
2019-03-09T06:21:51.953Z,10.69
2019-03-09T06:24:23.813Z,10.67
2019-03-09T06:26:55.433Z,10.74
2019-03-09T06:29:26.796Z,10.75
2019-03-09T06:32:33.438Z,10.86
2019-03-09T06:35:04.954Z,11.00
2019-03-09T06:37:36.664Z,11.17
2019-03-09T06:40:08.117Z,11.45
2019-03-09T06:42:45.258Z,11.76
2019-03-09T06:45:17.716Z,12.08
2019-03-09T06:47:49.147Z,12.34
2019-03-09T06:50:21.245Z,12.79
2019-03-09T06:52:52.360Z,13.17
2019-03-09T06:55:23.722Z,13.09
2019-03-09T06:57:55.108Z,13.41
2019-03-09T07:00:37.678Z,13.96
2019-03-09T07:03:10.444Z,14.30
2019-03-09T07:05:41.578Z,14.70
2019-03-09T07:08:12.599Z,14.54
2019-03-09T07:10:43.496Z,14.52
2019-03-09T07:13:14.656Z,14.58
2019-03-09T07:15:46.834Z,14.85
2019-03-09T07:18:19.797Z,15.45
2019-03-09T07:20:50.842Z,15.38
2019-03-09T07:23:22.018Z,15.68
2019-03-09T07:25:53.313Z,16.84
2019-03-09T07:28:24.400Z,16.88
2019-03-09T07:30:57.952Z,16.88
2019-03-09T07:33:29.352Z,17.07
2019-03-09T07:36:00.853Z,17.07
2019-03-09T07:38:32.022Z,17.26
2019-03-09T07:41:04.431Z,17.23
2019-03-09T07:43:35.660Z,17.65
2019-03-09T07:46:06.789Z,17.82
2019-03-09T07:48:37.798Z,17.81
2019-03-09T07:51:09.170Z,18.23
2019-03-09T07:53:40.232Z,17.88
2019-03-09T07:56:11.213Z,18.17
2019-03-09T07:58:42.422Z,18.33
2019-03-09T08:01:13.635Z,18.37
2019-03-09T08:03:44.735Z,18.41
2019-03-09T08:06:15.957Z,18.56
2019-03-09T08:08:47.158Z,18.86
2019-03-09T08:11:18.480Z,18.66
2019-03-09T08:13:49.548Z,18.71
2019-03-09T08:16:20.586Z,18.91
2019-03-09T08:18:53.014Z,19.34
2019-03-09T08:21:24.393Z,19.38
2019-03-09T08:23:56.538Z,19.45
2019-03-09T08:26:27.973Z,19.28
2019-03-09T08:28:59.154Z,19.60
2019-03-09T08:31:30.582Z,19.93
2019-03-09T08:34:01.921Z,20.00
2019-03-09T08:36:34.952Z,19.99
2019-03-09T08:39:07.525Z,19.82
2019-03-09T08:41:39.551Z,20.25
2019-03-09T08:44:11.046Z,20.16
2019-03-09T08:46:42.662Z,20.44
2019-03-09T08:49:14.084Z,20.61
2019-03-09T08:51:45.272Z,20.16
2019-03-09T08:54:16.638Z,20.17
2019-03-09T08:56:48.066Z,20.18
2019-03-09T08:59:19.389Z,20.43
2019-03-09T09:01:50.876Z,20.64
2019-03-09T09:04:21.849Z,20.71
2019-03-09T09:06:53.246Z,20.78
2019-03-09T09:09:24.624Z,20.57
2019-03-09T09:11:55.845Z,20.38
2019-03-09T09:14:27.164Z,20.60
2019-03-09T09:16:58.266Z,20.93
2019-03-09T09:19:29.317Z,21.06
2019-03-09T09:22:00.477Z,21.36
2019-03-09T09:24:31.681Z,20.92
2019-03-09T09:27:02.809Z,20.81
2019-03-09T09:29:34.240Z,21.23
2019-03-09T09:32:05.755Z,21.46
2019-03-09T09:34:37.079Z,21.56
2019-03-09T09:37:08.329Z,21.40
2019-03-09T09:39:39.484Z,21.24
2019-03-09T09:42:10.897Z,21.62
2019-03-09T09:44:42.077Z,21.84
2019-03-09T09:47:13.611Z,21.61
2019-03-09T09:49:45.552Z,21.22
2019-03-09T09:52:17.004Z,21.27
2019-03-09T09:54:48.520Z,20.79
2019-03-09T09:57:19.630Z,20.92
2019-03-09T09:59:50.858Z,20.84
2019-03-09T10:02:21.897Z,21.16
2019-03-09T10:04:53.006Z,21.40
2019-03-09T10:07:24.002Z,21.55
2019-03-09T10:09:55.034Z,21.65
2019-03-09T10:12:26.054Z,21.96
2019-03-09T10:14:56.988Z,22.17
2019-03-09T10:17:28.322Z,22.01
2019-03-09T10:19:59.441Z,22.09
2019-03-09T10:22:30.487Z,22.36
2019-03-09T10:25:01.424Z,22.45
2019-03-09T10:27:33.487Z,22.44
2019-03-09T10:30:04.903Z,22.48
2019-03-09T10:32:35.906Z,22.60
2019-03-09T10:35:07.253Z,22.28
2019-03-09T10:37:38.212Z,21.99
2019-03-09T10:40:09.573Z,21.82
2019-03-09T10:42:41.527Z,21.55
2019-03-09T10:45:12.881Z,21.28
2019-03-09T10:47:44.804Z,21.14
2019-03-09T10:50:15.904Z,21.48
2019-03-09T10:52:47.024Z,21.63
2019-03-09T10:55:19.744Z,21.84
2019-03-09T10:57:50.966Z,21.71
2019-03-09T11:00:24.719Z,21.42
2019-03-09T11:02:56.261Z,21.37
2019-03-09T11:05:27.628Z,21.55
2019-03-09T11:07:58.850Z,21.93
2019-03-09T11:10:30.355Z,22.53
2019-03-09T11:13:01.760Z,22.68
2019-03-09T11:15:33.464Z,22.20
2019-03-09T11:18:04.483Z,22.39
2019-03-09T11:20:35.624Z,22.53
2019-03-09T11:23:06.664Z,22.68
2019-03-09T11:25:37.883Z,22.23
2019-03-09T11:28:10.838Z,22.37
2019-03-09T11:30:42.379Z,22.70
2019-03-09T11:33:13.648Z,22.81
2019-03-09T11:35:44.916Z,22.73
2019-03-09T11:38:16.291Z,23.07
2019-03-09T11:40:57.037Z,23.12
2019-03-09T11:43:20.275Z,23.35
2019-03-09T11:45:51.400Z,23.02
2019-03-09T11:48:22.592Z,22.50
2019-03-09T11:50:54.026Z,23.09
2019-03-09T11:53:25.515Z,22.46
2019-03-09T11:55:56.857Z,22.28
2019-03-09T11:58:27.807Z,22.24
2019-03-09T12:00:59.086Z,22.34
2019-03-09T12:03:30.365Z,22.75
2019-03-09T12:06:01.615Z,22.68
2019-03-09T12:08:33.088Z,22.08
2019-03-09T12:11:04.320Z,22.19
2019-03-09T12:13:35.890Z,22.32
2019-03-09T12:16:08.149Z,22.03
2019-03-09T12:18:39.498Z,21.52
2019-03-09T12:23:41.848Z,20.96
2019-03-09T12:26:12.885Z,21.10
2019-03-09T12:28:44.308Z,21.14
2019-03-09T12:31:15.724Z,21.15
2019-03-09T12:33:46.779Z,20.73
2019-03-09T12:36:18.013Z,20.87
2019-03-09T12:38:48.979Z,20.87
2019-03-09T12:41:20.210Z,20.74
2019-03-09T12:43:51.202Z,20.73
2019-03-09T12:46:22.260Z,20.98
2019-03-09T12:48:53.264Z,21.01
2019-03-09T12:51:24.287Z,20.99
2019-03-09T12:53:55.825Z,20.89
2019-03-09T12:56:27.056Z,20.83
2019-03-09T12:58:58.122Z,20.65
2019-03-09T13:01:29.088Z,20.78
2019-03-09T13:04:00.243Z,20.67
2019-03-09T13:06:31.346Z,20.77
2019-03-09T13:09:02.547Z,21.02
2019-03-09T13:11:35.023Z,20.95
2019-03-09T13:14:06.505Z,20.90
2019-03-09T13:16:37.645Z,20.82
2019-03-09T13:19:09.008Z,20.97
2019-03-09T13:21:40.345Z,21.12
2019-03-09T13:24:11.666Z,21.09
2019-03-09T13:26:43.162Z,21.16
2019-03-09T13:29:14.130Z,20.99
2019-03-09T13:34:15.113Z,20.81
2019-03-09T13:36:46.434Z,20.83
2019-03-09T13:39:17.746Z,20.74
2019-03-09T13:41:48.714Z,20.74
2019-03-09T13:44:19.686Z,20.76
2019-03-09T13:46:50.965Z,20.67
2019-03-09T13:49:22.172Z,20.78
2019-03-09T13:51:53.589Z,20.90
2019-03-09T13:56:55.396Z,21.11
2019-03-09T13:59:27.447Z,21.11
2019-03-09T14:01:58.652Z,21.08
2019-03-09T14:04:29.897Z,21.09
2019-03-09T14:07:01.273Z,21.14
2019-03-09T14:09:32.721Z,20.87
2019-03-09T14:12:03.856Z,20.75
2019-03-09T14:14:35.263Z,20.60
2019-03-09T14:17:06.390Z,20.44
2019-03-09T14:19:37.556Z,20.36
2019-03-09T14:22:09.010Z,20.62
2019-03-09T14:24:40.440Z,20.63
2019-03-09T14:27:11.723Z,20.65
2019-03-09T14:29:42.843Z,20.83
2019-03-09T14:32:14.331Z,20.81
2019-03-09T14:34:45.724Z,20.56
2019-03-09T14:37:17.084Z,20.52
2019-03-09T14:39:48.507Z,20.66
2019-03-09T14:42:19.625Z,20.87
2019-03-09T14:44:50.691Z,20.89
2019-03-09T14:47:21.829Z,20.90
2019-03-09T14:49:52.986Z,20.90
2019-03-09T14:52:24.368Z,20.89
2019-03-09T14:54:55.612Z,20.79
2019-03-09T14:57:26.631Z,20.84
2019-03-09T14:59:57.535Z,20.60
2019-03-09T15:02:28.691Z,20.41
2019-03-09T15:04:59.714Z,20.50
2019-03-09T15:07:30.820Z,20.31
2019-03-09T15:10:01.789Z,20.43
2019-03-09T15:12:33.039Z,20.43
2019-03-09T15:15:04.153Z,20.43
2019-03-09T15:17:35.182Z,20.36
2019-03-09T15:20:06.822Z,20.25
2019-03-09T15:22:38.039Z,20.11
2019-03-09T15:25:10.072Z,19.95
2019-03-09T15:27:41.034Z,19.86
2019-03-09T15:30:13.592Z,19.85
2019-03-09T15:32:44.649Z,19.81
2019-03-09T15:35:16.953Z,19.66
2019-03-09T15:37:48.450Z,19.67
2019-03-09T15:40:21.434Z,19.55
2019-03-09T15:42:52.870Z,19.66
2019-03-09T15:45:25.027Z,19.78
2019-03-09T15:47:56.270Z,19.83
2019-03-09T15:50:27.359Z,19.92
2019-03-09T15:52:58.505Z,19.94
2019-03-09T15:55:29.587Z,19.80
2019-03-09T15:58:00.962Z,19.74
2019-03-09T16:00:31.966Z,19.67
2019-03-09T16:03:03.321Z,19.70
2019-03-09T16:05:34.714Z,19.47
2019-03-09T16:08:06.177Z,19.59
2019-03-09T16:10:37.687Z,19.57
2019-03-09T16:13:09.068Z,19.59
2019-03-09T16:15:40.381Z,19.49
2019-03-09T16:18:11.331Z,19.41
2019-03-09T16:20:42.591Z,19.34
2019-03-09T16:23:13.721Z,19.32
2019-03-09T16:25:44.905Z,19.35
2019-03-09T16:28:16.319Z,19.27
2019-03-09T16:30:47.752Z,19.16
2019-03-09T16:33:19.154Z,19.05
2019-03-09T16:35:50.439Z,19.09
2019-03-09T16:38:21.498Z,18.89
2019-03-09T16:40:52.858Z,18.83
2019-03-09T16:43:24.379Z,18.81
2019-03-09T16:45:55.496Z,18.77
2019-03-09T16:48:27.035Z,18.80
2019-03-09T16:50:58.312Z,18.58
2019-03-09T16:53:29.601Z,18.43
2019-03-09T16:56:01.025Z,18.50
2019-03-09T16:58:32.370Z,18.39
2019-03-09T17:01:03.717Z,18.46
2019-03-09T17:03:34.732Z,18.39
2019-03-09T17:06:06.015Z,18.31
2019-03-09T17:08:37.224Z,18.22
2019-03-09T17:11:08.717Z,18.19
2019-03-09T17:13:40.054Z,18.10
2019-03-09T17:16:11.479Z,18.02
2019-03-09T17:18:42.834Z,17.98
2019-03-09T17:21:15.495Z,17.98
2019-03-09T17:23:47.774Z,17.79
2019-03-09T17:26:18.937Z,17.81
2019-03-09T17:28:50.564Z,17.85
2019-03-09T17:31:24.996Z,17.82
2019-03-09T17:33:56.572Z,17.33
2019-03-09T17:36:27.839Z,16.98
2019-03-09T17:38:59.065Z,16.62
2019-03-09T17:41:30.281Z,16.30
2019-03-09T17:44:01.753Z,15.69
2019-03-09T17:46:32.911Z,15.69
2019-03-09T17:49:04.194Z,15.46
2019-03-09T17:51:35.456Z,15.30
2019-03-09T17:54:06.869Z,15.08
2019-03-09T17:56:37.822Z,15.03
2019-03-09T17:59:09.046Z,14.96
2019-03-09T18:01:40.430Z,14.79
2019-03-09T18:04:11.613Z,14.70
2019-03-09T18:06:43.019Z,14.39
2019-03-09T18:09:14.267Z,14.34
2019-03-09T18:11:45.483Z,14.18
2019-03-09T18:14:16.695Z,14.14
2019-03-09T18:16:52.655Z,14.15
2019-03-09T18:19:20.722Z,14.07
2019-03-09T18:21:51.827Z,13.95
2019-03-09T18:24:23.250Z,13.91
2019-03-09T18:26:54.583Z,13.98
2019-03-09T18:29:26.882Z,13.87
2019-03-09T18:31:58.207Z,13.84
2019-03-09T18:34:29.635Z,13.87
2019-03-09T18:37:00.989Z,13.88
2019-03-09T18:39:32.290Z,13.82
2019-03-09T18:42:03.494Z,13.82
2019-03-09T18:44:34.939Z,13.77
2019-03-09T18:47:06.233Z,13.75
2019-03-09T18:49:37.418Z,13.72
2019-03-09T18:52:08.603Z,13.79
2019-03-09T18:54:39.909Z,13.82
2019-03-09T18:57:11.157Z,13.86
2019-03-09T18:59:43.268Z,13.94
2019-03-09T19:02:14.487Z,14.01
2019-03-09T19:04:45.668Z,14.03
2019-03-09T19:07:16.848Z,14.09
2019-03-09T19:09:48.199Z,14.05
2019-03-09T19:12:19.440Z,14.09
2019-03-09T19:14:50.441Z,14.04
2019-03-09T19:17:21.576Z,14.10
2019-03-09T19:19:52.851Z,14.18
2019-03-09T19:22:24.139Z,14.20
2019-03-09T19:24:55.140Z,14.22
2019-03-09T19:27:26.260Z,14.20
2019-03-09T19:29:57.589Z,14.06
2019-03-09T19:32:28.741Z,13.98
2019-03-09T19:35:00.011Z,13.77
2019-03-09T19:37:31.011Z,13.78
2019-03-09T19:40:02.114Z,13.61
2019-03-09T19:42:34.026Z,13.63
2019-03-09T19:45:05.258Z,13.62
2019-03-09T19:47:36.227Z,13.54
2019-03-09T19:50:09.022Z,13.40
2019-03-09T19:52:40.178Z,13.40
2019-03-09T19:55:11.662Z,13.48
2019-03-09T19:57:42.730Z,13.34
2019-03-09T20:00:14.714Z,13.43
2019-03-09T20:02:45.717Z,13.51
2019-03-09T20:05:17.021Z,13.51
2019-03-09T20:07:47.958Z,13.59
2019-03-09T20:10:19.293Z,13.60
2019-03-09T20:12:50.502Z,13.67
2019-03-09T20:15:21.792Z,13.75
2019-03-09T20:17:52.937Z,13.61
2019-03-09T20:20:24.171Z,13.54
2019-03-09T20:22:55.393Z,13.55
2019-03-09T20:25:28.456Z,13.39
2019-03-09T20:27:58.956Z,13.50
2019-03-09T20:30:29.992Z,13.37
2019-03-09T20:33:02.047Z,13.18
2019-03-09T20:35:33.339Z,13.21
2019-03-09T20:38:04.817Z,13.13
2019-03-09T20:40:36.136Z,13.08
2019-03-09T20:43:07.241Z,13.12
2019-03-09T20:45:38.386Z,13.15
2019-03-09T20:48:10.020Z,12.95
2019-03-09T20:50:41.138Z,12.98
2019-03-09T20:53:13.215Z,12.99
2019-03-09T20:55:44.232Z,13.04
2019-03-09T20:58:15.154Z,13.07
2019-03-09T21:00:46.433Z,13.02
2019-03-09T21:03:17.549Z,13.04
2019-03-09T21:05:49.089Z,13.14
2019-03-09T21:08:19.998Z,13.22
2019-03-09T21:10:51.105Z,13.31
2019-03-09T21:13:22.194Z,13.36
2019-03-09T21:15:53.451Z,13.43
2019-03-09T21:18:24.551Z,13.47
2019-03-09T21:20:55.688Z,13.52
2019-03-09T21:23:26.617Z,13.55
2019-03-09T21:25:57.527Z,13.42
2019-03-09T21:28:28.841Z,13.23
2019-03-09T21:31:00.005Z,13.21
2019-03-09T21:33:31.341Z,12.99
2019-03-09T21:36:02.612Z,12.92
2019-03-09T21:38:33.773Z,12.79
2019-03-09T21:41:04.992Z,12.65
2019-03-09T21:43:36.204Z,12.56
2019-03-09T21:46:08.519Z,12.55
2019-03-09T21:48:39.705Z,12.32
2019-03-09T21:51:10.900Z,12.26
2019-03-09T21:53:42.503Z,12.19
2019-03-09T21:56:13.833Z,12.10
2019-03-09T21:58:45.617Z,12.04
2019-03-09T22:01:17.175Z,12.08
2019-03-09T22:03:48.457Z,12.09
2019-03-09T22:06:19.598Z,12.17
2019-03-09T22:08:50.981Z,12.26
2019-03-09T22:11:22.254Z,12.39
2019-03-09T22:13:53.474Z,12.44
2019-03-09T22:16:24.767Z,12.55
2019-03-09T22:18:56.086Z,12.68
2019-03-09T22:21:27.686Z,12.56
2019-03-09T22:23:58.777Z,12.66
2019-03-09T22:26:30.318Z,12.57
2019-03-09T22:29:01.408Z,12.42
2019-03-09T22:31:32.603Z,12.36
2019-03-09T22:34:03.914Z,12.28
2019-03-09T22:36:35.402Z,12.21
2019-03-09T22:39:07.552Z,12.25
2019-03-09T22:41:39.126Z,12.26
2019-03-09T22:44:10.172Z,12.33
2019-03-09T22:46:41.102Z,12.41
2019-03-09T22:49:12.717Z,12.39
2019-03-09T22:51:43.770Z,12.41
2019-03-09T22:54:14.911Z,12.52
2019-03-09T22:56:46.318Z,12.58
2019-03-09T22:59:17.528Z,12.62
2019-03-09T23:01:48.643Z,12.72
2019-03-09T23:04:19.902Z,12.81
2019-03-09T23:06:51.143Z,12.82
2019-03-09T23:09:22.536Z,12.92
2019-03-09T23:11:53.878Z,13.03
2019-03-09T23:14:25.195Z,12.96
2019-03-09T23:16:56.619Z,12.93
2019-03-09T23:19:27.730Z,12.92
2019-03-09T23:21:59.271Z,12.58
2019-03-09T23:24:30.482Z,12.58
2019-03-09T23:27:01.807Z,12.56
2019-03-09T23:29:32.989Z,12.61
2019-03-09T23:32:04.190Z,12.62
2019-03-09T23:34:35.326Z,12.69
2019-03-09T23:37:06.613Z,12.73
2019-03-09T23:39:38.067Z,12.78
2019-03-09T23:42:09.347Z,12.75
2019-03-09T23:44:40.498Z,12.76
2019-03-09T23:47:11.559Z,12.73
2019-03-09T23:49:42.671Z,12.69
2019-03-09T23:52:13.926Z,12.78
2019-03-09T23:54:45.275Z,12.70
2019-03-09T23:57:17.082Z,12.34
2019-03-09T23:59:48.628Z,12.04
